sensor_id;sensor_type;location;lat;lon;timestamp;P1;durP1;ratioP1;P2;durP2;ratioP2
9330;SDS011;4704;50.470;12.072;2022-09-13T00:02:21;1.80;;;1.70;;
9330;SDS011;4704;50.470;12.072;2022-09-13T00:04:49;1.63;;;1.52;;
9330;SDS011;4704;50.470;12.072;2022-09-13T00:07:16;1.60;;;1.50;;
9330;SDS011;4704;50.470;12.072;2022-09-13T00:09:43;2.13;;;1.80;;
9330;SDS011;4704;50.470;12.072;2022-09-13T00:12:11;1.88;;;1.77;;
9330;SDS011;4704;50.470;12.072;2022-09-13T00:14:39;1.50;;;1.40;;
9330;SDS011;4704;50.470;12.072;2022-09-13T00:17:07;1.67;;;1.58;;
9330;SDS011;4704;50.470;12.072;2022-09-13T00:19:34;1.83;;;1.45;;
9330;SDS011;4704;50.470;12.072;2022-09-13T00:22:02;1.50;;;1.40;;
9330;SDS011;4704;50.470;12.072;2022-09-13T00:24:30;1.70;;;1.60;;
9330;SDS011;4704;50.470;12.072;2022-09-13T00:26:58;1.70;;;1.60;;
9330;SDS011;4704;50.470;12.072;2022-09-13T00:29:26;1.67;;;1.58;;
9330;SDS011;4704;50.470;12.072;2022-09-13T00:31:55;1.70;;;1.60;;
9330;SDS011;4704;50.470;12.072;2022-09-13T00:34:23;1.45;;;1.35;;
9330;SDS011;4704;50.470;12.072;2022-09-13T00:36:50;1.60;;;1.50;;
9330;SDS011;4704;50.470;12.072;2022-09-13T00:39:17;1.70;;;1.60;;
9330;SDS011;4704;50.470;12.072;2022-09-13T00:41:44;1.65;;;1.55;;
9330;SDS011;4704;50.470;12.072;2022-09-13T00:46:59;1.50;;;1.40;;
9330;SDS011;4704;50.470;12.072;2022-09-13T00:49:28;1.67;;;1.58;;
9330;SDS011;4704;50.470;12.072;2022-09-13T00:52:00;1.70;;;1.60;;
9330;SDS011;4704;50.470;12.072;2022-09-13T00:54:30;1.70;;;1.60;;
9330;SDS011;4704;50.470;12.072;2022-09-13T00:57:00;1.60;;;1.50;;
9330;SDS011;4704;50.470;12.072;2022-09-13T00:59:29;1.63;;;1.52;;
9330;SDS011;4704;50.470;12.072;2022-09-13T01:01:57;1.63;;;1.52;;
9330;SDS011;4704;50.470;12.072;2022-09-13T01:04:26;1.70;;;1.60;;
9330;SDS011;4704;50.470;12.072;2022-09-13T01:06:55;1.50;;;1.33;;
9330;SDS011;4704;50.470;12.072;2022-09-13T01:09:25;1.70;;;1.60;;
9330;SDS011;4704;50.470;12.072;2022-09-13T01:11:54;1.70;;;1.60;;
9330;SDS011;4704;50.470;12.072;2022-09-13T01:14:24;1.67;;;1.58;;
9330;SDS011;4704;50.470;12.072;2022-09-13T01:16:51;2.33;;;1.60;;
9330;SDS011;4704;50.470;12.072;2022-09-13T01:19:19;1.70;;;1.60;;
9330;SDS011;4704;50.470;12.072;2022-09-13T01:27:28;1.70;;;1.60;;
9330;SDS011;4704;50.470;12.072;2022-09-13T01:30:10;1.70;;;1.60;;
9330;SDS011;4704;50.470;12.072;2022-09-13T01:32:45;1.40;;;1.30;;
9330;SDS011;4704;50.470;12.072;2022-09-13T01:35:18;1.52;;;1.42;;
9330;SDS011;4704;50.470;12.072;2022-09-13T01:37:50;1.70;;;1.60;;
9330;SDS011;4704;50.470;12.072;2022-09-13T01:40:31;1.70;;;1.60;;
9330;SDS011;4704;50.470;12.072;2022-09-13T01:43:14;2.38;;;1.58;;
9330;SDS011;4704;50.470;12.072;2022-09-13T01:45:50;1.48;;;1.38;;
9330;SDS011;4704;50.470;12.072;2022-09-13T01:48:20;1.65;;;1.55;;
9330;SDS011;4704;50.470;12.072;2022-09-13T01:50:51;2.10;;;1.40;;
9330;SDS011;4704;50.470;12.072;2022-09-13T01:53:19;1.70;;;1.50;;
9330;SDS011;4704;50.470;12.072;2022-09-13T01:55:53;1.75;;;1.65;;
9330;SDS011;4704;50.470;12.072;2022-09-13T01:58:23;1.40;;;1.30;;
9330;SDS011;4704;50.470;12.072;2022-09-13T02:00:58;1.60;;;1.50;;
9330;SDS011;4704;50.470;12.072;2022-09-13T02:03:30;1.80;;;1.70;;
9330;SDS011;4704;50.470;12.072;2022-09-13T02:06:00;1.40;;;1.30;;
9330;SDS011;4704;50.470;12.072;2022-09-13T02:08:31;1.58;;;1.48;;
9330;SDS011;4704;50.470;12.072;2022-09-13T02:11:03;1.42;;;1.33;;
9330;SDS011;4704;50.470;12.072;2022-09-13T02:13:33;1.45;;;1.40;;
9330;SDS011;4704;50.470;12.072;2022-09-13T02:16:04;1.50;;;1.40;;
9330;SDS011;4704;50.470;12.072;2022-09-13T02:18:33;1.65;;;1.55;;
9330;SDS011;4704;50.470;12.072;2022-09-13T02:21:03;1.95;;;1.75;;
9330;SDS011;4704;50.470;12.072;2022-09-13T02:23:35;1.55;;;1.45;;
9330;SDS011;4704;50.470;12.072;2022-09-13T02:26:04;1.60;;;1.50;;
9330;SDS011;4704;50.470;12.072;2022-09-13T02:28:34;3.15;;;1.52;;
9330;SDS011;4704;50.470;12.072;2022-09-13T02:31:04;1.60;;;1.50;;
9330;SDS011;4704;50.470;12.072;2022-09-13T02:33:34;1.73;;;1.63;;
9330;SDS011;4704;50.470;12.072;2022-09-13T02:36:04;1.50;;;1.40;;
9330;SDS011;4704;50.470;12.072;2022-09-13T02:38:33;1.63;;;1.52;;
9330;SDS011;4704;50.470;12.072;2022-09-13T02:41:04;1.85;;;1.55;;
9330;SDS011;4704;50.470;12.072;2022-09-13T02:43:34;1.92;;;1.45;;
9330;SDS011;4704;50.470;12.072;2022-09-13T02:46:11;1.98;;;1.60;;
9330;SDS011;4704;50.470;12.072;2022-09-13T02:48:45;1.50;;;1.40;;
9330;SDS011;4704;50.470;12.072;2022-09-13T02:51:16;1.60;;;1.50;;
9330;SDS011;4704;50.470;12.072;2022-09-13T02:53:44;1.83;;;1.73;;
9330;SDS011;4704;50.470;12.072;2022-09-13T02:56:15;1.60;;;1.50;;
9330;SDS011;4704;50.470;12.072;2022-09-13T02:58:47;1.60;;;1.50;;
9330;SDS011;4704;50.470;12.072;2022-09-13T03:01:19;1.70;;;1.60;;
9330;SDS011;4704;50.470;12.072;2022-09-13T03:03:46;1.65;;;1.55;;
9330;SDS011;4704;50.470;12.072;2022-09-13T03:06:20;1.70;;;1.60;;
9330;SDS011;4704;50.470;12.072;2022-09-13T03:08:47;1.50;;;1.40;;
9330;SDS011;4704;50.470;12.072;2022-09-13T03:11:17;1.52;;;1.42;;
9330;SDS011;4704;50.470;12.072;2022-09-13T03:13:53;1.58;;;1.48;;
9330;SDS011;4704;50.470;12.072;2022-09-13T03:19:17;1.77;;;1.67;;
9330;SDS011;4704;50.470;12.072;2022-09-13T03:21:55;1.60;;;1.50;;
9330;SDS011;4704;50.470;12.072;2022-09-13T03:24:27;1.70;;;1.60;;
9330;SDS011;4704;50.470;12.072;2022-09-13T03:27:01;1.60;;;1.50;;
9330;SDS011;4704;50.470;12.072;2022-09-13T03:29:30;1.50;;;1.40;;
9330;SDS011;4704;50.470;12.072;2022-09-13T03:32:08;1.52;;;1.42;;
9330;SDS011;4704;50.470;12.072;2022-09-13T03:34:44;1.48;;;1.38;;
9330;SDS011;4704;50.470;12.072;2022-09-13T03:37:15;1.70;;;1.60;;
9330;SDS011;4704;50.470;12.072;2022-09-13T03:39:44;1.67;;;1.58;;
9330;SDS011;4704;50.470;12.072;2022-09-13T03:42:15;1.60;;;1.50;;
9330;SDS011;4704;50.470;12.072;2022-09-13T03:44:44;1.60;;;1.50;;
9330;SDS011;4704;50.470;12.072;2022-09-13T03:47:14;1.67;;;1.58;;
9330;SDS011;4704;50.470;12.072;2022-09-13T03:49:43;1.60;;;1.50;;
9330;SDS011;4704;50.470;12.072;2022-09-13T03:52:10;1.77;;;1.67;;
9330;SDS011;4704;50.470;12.072;2022-09-13T03:54:38;1.60;;;1.50;;
9330;SDS011;4704;50.470;12.072;2022-09-13T03:57:06;1.75;;;1.45;;
9330;SDS011;4704;50.470;12.072;2022-09-13T03:59:34;1.50;;;1.40;;
9330;SDS011;4704;50.470;12.072;2022-09-13T04:02:03;1.75;;;1.63;;
9330;SDS011;4704;50.470;12.072;2022-09-13T04:04:31;1.58;;;1.48;;
9330;SDS011;4704;50.470;12.072;2022-09-13T04:07:00;1.58;;;1.48;;
9330;SDS011;4704;50.470;12.072;2022-09-13T04:09:28;1.70;;;1.60;;
9330;SDS011;4704;50.470;12.072;2022-09-13T04:11:56;1.60;;;1.50;;
9330;SDS011;4704;50.470;12.072;2022-09-13T04:14:23;1.60;;;1.50;;
9330;SDS011;4704;50.470;12.072;2022-09-13T04:16:52;1.60;;;1.50;;
9330;SDS011;4704;50.470;12.072;2022-09-13T04:19:20;1.70;;;1.60;;
9330;SDS011;4704;50.470;12.072;2022-09-13T04:21:47;1.90;;;1.80;;
9330;SDS011;4704;50.470;12.072;2022-09-13T04:24:16;1.67;;;1.58;;
9330;SDS011;4704;50.470;12.072;2022-09-13T04:26:44;1.70;;;1.60;;
9330;SDS011;4704;50.470;12.072;2022-09-13T04:29:14;1.50;;;1.40;;
9330;SDS011;4704;50.470;12.072;2022-09-13T04:31:42;1.58;;;1.48;;
9330;SDS011;4704;50.470;12.072;2022-09-13T04:34:09;1.80;;;1.70;;
9330;SDS011;4704;50.470;12.072;2022-09-13T04:36:37;1.60;;;1.50;;
9330;SDS011;4704;50.470;12.072;2022-09-13T04:39:04;1.88;;;1.77;;
9330;SDS011;4704;50.470;12.072;2022-09-13T04:41:33;1.60;;;1.50;;
9330;SDS011;4704;50.470;12.072;2022-09-13T04:44:01;1.50;;;1.40;;
9330;SDS011;4704;50.470;12.072;2022-09-13T04:46:28;2.50;;;1.83;;
9330;SDS011;4704;50.470;12.072;2022-09-13T04:48:55;1.80;;;1.70;;
9330;SDS011;4704;50.470;12.072;2022-09-13T04:51:23;1.80;;;1.70;;
9330;SDS011;4704;50.470;12.072;2022-09-13T04:53:51;1.70;;;1.60;;
9330;SDS011;4704;50.470;12.072;2022-09-13T04:56:19;1.70;;;1.60;;
9330;SDS011;4704;50.470;12.072;2022-09-13T04:58:49;1.73;;;1.63;;
9330;SDS011;4704;50.470;12.072;2022-09-13T05:01:16;1.50;;;1.40;;
9330;SDS011;4704;50.470;12.072;2022-09-13T05:03:44;1.77;;;1.67;;
9330;SDS011;4704;50.470;12.072;2022-09-13T05:06:11;1.65;;;1.55;;
9330;SDS011;4704;50.470;12.072;2022-09-13T05:08:39;1.77;;;1.67;;
9330;SDS011;4704;50.470;12.072;2022-09-13T05:11:06;1.50;;;1.40;;
9330;SDS011;4704;50.470;12.072;2022-09-13T05:13:34;1.60;;;1.50;;
9330;SDS011;4704;50.470;12.072;2022-09-13T05:16:03;1.75;;;1.65;;
9330;SDS011;4704;50.470;12.072;2022-09-13T05:18:31;1.65;;;1.55;;
9330;SDS011;4704;50.470;12.072;2022-09-13T05:20:59;1.60;;;1.50;;
9330;SDS011;4704;50.470;12.072;2022-09-13T05:23:27;1.73;;;1.63;;
9330;SDS011;4704;50.470;12.072;2022-09-13T05:25:55;1.60;;;1.50;;
9330;SDS011;4704;50.470;12.072;2022-09-13T05:28:23;1.60;;;1.50;;
9330;SDS011;4704;50.470;12.072;2022-09-13T05:30:54;1.60;;;1.50;;
9330;SDS011;4704;50.470;12.072;2022-09-13T05:33:23;1.60;;;1.50;;
9330;SDS011;4704;50.470;12.072;2022-09-13T05:35:51;1.65;;;1.55;;
9330;SDS011;4704;50.470;12.072;2022-09-13T05:38:18;2.00;;;1.90;;
9330;SDS011;4704;50.470;12.072;2022-09-13T05:40:46;2.53;;;1.90;;
9330;SDS011;4704;50.470;12.072;2022-09-13T05:43:14;1.80;;;1.65;;
9330;SDS011;4704;50.470;12.072;2022-09-13T05:45:41;2.65;;;2.10;;
9330;SDS011;4704;50.470;12.072;2022-09-13T05:48:09;4.38;;;2.30;;
9330;SDS011;4704;50.470;12.072;2022-09-13T05:50:38;2.42;;;2.05;;
9330;SDS011;4704;50.470;12.072;2022-09-13T05:53:05;2.92;;;2.40;;
9330;SDS011;4704;50.470;12.072;2022-09-13T05:55:33;2.90;;;2.53;;
9330;SDS011;4704;50.470;12.072;2022-09-13T05:58:01;3.00;;;2.70;;
9330;SDS011;4704;50.470;12.072;2022-09-13T06:00:28;2.90;;;2.60;;
9330;SDS011;4704;50.470;12.072;2022-09-13T06:02:56;3.85;;;2.88;;
9330;SDS011;4704;50.470;12.072;2022-09-13T06:05:24;3.42;;;2.90;;
9330;SDS011;4704;50.470;12.072;2022-09-13T06:07:53;4.13;;;2.70;;
9330;SDS011;4704;50.470;12.072;2022-09-13T06:10:21;4.35;;;2.80;;
9330;SDS011;4704;50.470;12.072;2022-09-13T06:12:49;5.28;;;3.15;;
9330;SDS011;4704;50.470;12.072;2022-09-13T06:15:17;4.78;;;3.55;;
9330;SDS011;4704;50.470;12.072;2022-09-13T06:17:44;4.28;;;3.20;;
9330;SDS011;4704;50.470;12.072;2022-09-13T06:20:12;5.68;;;3.25;;
9330;SDS011;4704;50.470;12.072;2022-09-13T06:22:39;5.60;;;3.50;;
9330;SDS011;4704;50.470;12.072;2022-09-13T06:25:08;6.28;;;3.80;;
9330;SDS011;4704;50.470;12.072;2022-09-13T06:27:36;5.10;;;3.45;;
9330;SDS011;4704;50.470;12.072;2022-09-13T06:30:03;4.50;;;3.65;;
9330;SDS011;4704;50.470;12.072;2022-09-13T06:32:33;5.28;;;3.88;;
9330;SDS011;4704;50.470;12.072;2022-09-13T06:35:00;5.82;;;3.42;;
9330;SDS011;4704;50.470;12.072;2022-09-13T06:37:27;4.45;;;3.60;;
9330;SDS011;4704;50.470;12.072;2022-09-13T06:39:55;4.47;;;3.60;;
9330;SDS011;4704;50.470;12.072;2022-09-13T06:42:25;5.38;;;3.72;;
9330;SDS011;4704;50.470;12.072;2022-09-13T06:44:52;5.60;;;3.88;;
9330;SDS011;4704;50.470;12.072;2022-09-13T06:47:19;5.93;;;3.67;;
9330;SDS011;4704;50.470;12.072;2022-09-13T06:49:47;6.72;;;4.10;;
9330;SDS011;4704;50.470;12.072;2022-09-13T06:52:15;5.55;;;4.30;;
9330;SDS011;4704;50.470;12.072;2022-09-13T06:54:42;5.63;;;4.50;;
9330;SDS011;4704;50.470;12.072;2022-09-13T06:57:10;7.28;;;4.82;;
9330;SDS011;4704;50.470;12.072;2022-09-13T06:59:38;7.60;;;4.60;;
9330;SDS011;4704;50.470;12.072;2022-09-13T07:02:06;6.18;;;4.57;;
9330;SDS011;4704;50.470;12.072;2022-09-13T07:04:33;6.43;;;4.35;;
9330;SDS011;4704;50.470;12.072;2022-09-13T07:07:01;8.02;;;4.68;;
9330;SDS011;4704;50.470;12.072;2022-09-13T07:09:28;6.88;;;4.28;;
9330;SDS011;4704;50.470;12.072;2022-09-13T07:11:56;6.53;;;4.30;;
9330;SDS011;4704;50.470;12.072;2022-09-13T07:14:24;5.82;;;4.70;;
9330;SDS011;4704;50.470;12.072;2022-09-13T07:16:53;6.25;;;4.30;;
9330;SDS011;4704;50.470;12.072;2022-09-13T07:19:22;6.45;;;4.32;;
9330;SDS011;4704;50.470;12.072;2022-09-13T07:21:50;5.72;;;4.55;;
9330;SDS011;4704;50.470;12.072;2022-09-13T07:24:18;6.28;;;4.75;;
9330;SDS011;4704;50.470;12.072;2022-09-13T07:26:46;6.18;;;4.30;;
9330;SDS011;4704;50.470;12.072;2022-09-13T07:29:14;5.28;;;4.03;;
9330;SDS011;4704;50.470;12.072;2022-09-13T07:31:43;6.78;;;4.55;;
9330;SDS011;4704;50.470;12.072;2022-09-13T07:34:13;6.25;;;4.05;;
9330;SDS011;4704;50.470;12.072;2022-09-13T07:36:40;6.47;;;4.30;;
9330;SDS011;4704;50.470;12.072;2022-09-13T07:39:09;6.20;;;4.45;;
9330;SDS011;4704;50.470;12.072;2022-09-13T07:41:36;5.88;;;4.18;;
9330;SDS011;4704;50.470;12.072;2022-09-13T07:44:03;6.93;;;4.22;;
9330;SDS011;4704;50.470;12.072;2022-09-13T07:46:33;4.82;;;3.83;;
9330;SDS011;4704;50.470;12.072;2022-09-13T07:49:08;5.72;;;4.32;;
9330;SDS011;4704;50.470;12.072;2022-09-13T07:51:38;5.55;;;4.20;;
9330;SDS011;4704;50.470;12.072;2022-09-13T07:54:06;5.38;;;3.85;;
9330;SDS011;4704;50.470;12.072;2022-09-13T07:56:34;6.05;;;4.15;;
9330;SDS011;4704;50.470;12.072;2022-09-13T07:59:03;6.05;;;4.22;;
9330;SDS011;4704;50.470;12.072;2022-09-13T08:01:33;6.53;;;4.45;;
9330;SDS011;4704;50.470;12.072;2022-09-13T08:04:02;5.38;;;4.47;;
9330;SDS011;4704;50.470;12.072;2022-09-13T08:06:30;6.30;;;4.13;;
9330;SDS011;4704;50.470;12.072;2022-09-13T08:08:59;6.43;;;4.65;;
9330;SDS011;4704;50.470;12.072;2022-09-13T08:11:27;5.07;;;4.28;;
9330;SDS011;4704;50.470;12.072;2022-09-13T08:13:56;6.10;;;4.28;;
9330;SDS011;4704;50.470;12.072;2022-09-13T08:16:24;4.78;;;4.28;;
9330;SDS011;4704;50.470;12.072;2022-09-13T08:18:52;4.88;;;3.70;;
9330;SDS011;4704;50.470;12.072;2022-09-13T08:21:20;5.13;;;4.03;;
9330;SDS011;4704;50.470;12.072;2022-09-13T08:23:47;5.80;;;4.35;;
9330;SDS011;4704;50.470;12.072;2022-09-13T08:26:16;5.25;;;3.97;;
9330;SDS011;4704;50.470;12.072;2022-09-13T08:28:44;5.85;;;4.38;;
9330;SDS011;4704;50.470;12.072;2022-09-13T08:31:12;4.45;;;3.85;;
9330;SDS011;4704;50.470;12.072;2022-09-13T08:33:42;5.53;;;3.80;;
9330;SDS011;4704;50.470;12.072;2022-09-13T08:36:09;4.68;;;3.95;;
9330;SDS011;4704;50.470;12.072;2022-09-13T08:38:37;6.53;;;4.20;;
9330;SDS011;4704;50.470;12.072;2022-09-13T08:41:15;5.10;;;4.10;;
9330;SDS011;4704;50.470;12.072;2022-09-13T08:43:46;4.35;;;3.80;;
9330;SDS011;4704;50.470;12.072;2022-09-13T08:46:18;4.68;;;4.18;;
9330;SDS011;4704;50.470;12.072;2022-09-13T08:48:47;5.03;;;3.70;;
9330;SDS011;4704;50.470;12.072;2022-09-13T08:51:22;4.93;;;3.90;;
9330;SDS011;4704;50.470;12.072;2022-09-13T08:53:51;5.95;;;3.90;;
9330;SDS011;4704;50.470;12.072;2022-09-13T08:56:19;4.85;;;3.72;;
9330;SDS011;4704;50.470;12.072;2022-09-13T08:58:55;5.63;;;4.32;;
9330;SDS011;4704;50.470;12.072;2022-09-13T09:01:29;5.22;;;4.03;;
9330;SDS011;4704;50.470;12.072;2022-09-13T09:04:00;5.90;;;3.72;;
9330;SDS011;4704;50.470;12.072;2022-09-13T09:06:32;5.10;;;3.50;;
9330;SDS011;4704;50.470;12.072;2022-09-13T09:09:02;4.60;;;3.97;;
9330;SDS011;4704;50.470;12.072;2022-09-13T09:11:31;5.07;;;3.80;;
9330;SDS011;4704;50.470;12.072;2022-09-13T09:14:04;6.00;;;4.20;;
9330;SDS011;4704;50.470;12.072;2022-09-13T09:16:35;4.32;;;3.90;;
9330;SDS011;4704;50.470;12.072;2022-09-13T09:19:07;5.07;;;3.78;;
9330;SDS011;4704;50.470;12.072;2022-09-13T09:21:36;5.30;;;3.78;;
9330;SDS011;4704;50.470;12.072;2022-09-13T09:24:04;5.95;;;3.95;;
9330;SDS011;4704;50.470;12.072;2022-09-13T09:26:32;4.45;;;4.05;;
9330;SDS011;4704;50.470;12.072;2022-09-13T09:29:00;4.03;;;3.63;;
9330;SDS011;4704;50.470;12.072;2022-09-13T09:31:34;4.93;;;3.75;;
9330;SDS011;4704;50.470;12.072;2022-09-13T09:34:07;5.75;;;3.63;;
9330;SDS011;4704;50.470;12.072;2022-09-13T09:36:38;4.70;;;3.80;;
9330;SDS011;4704;50.470;12.072;2022-09-13T09:39:09;5.25;;;3.92;;
9330;SDS011;4704;50.470;12.072;2022-09-13T09:41:37;4.15;;;3.72;;
9330;SDS011;4704;50.470;12.072;2022-09-13T09:44:09;3.75;;;3.42;;
9330;SDS011;4704;50.470;12.072;2022-09-13T09:46:41;4.43;;;3.60;;
9330;SDS011;4704;50.470;12.072;2022-09-13T09:55:17;4.03;;;3.63;;
9330;SDS011;4704;50.470;12.072;2022-09-13T09:57:51;3.50;;;3.20;;
9330;SDS011;4704;50.470;12.072;2022-09-13T10:00:19;4.07;;;3.50;;
9330;SDS011;4704;50.470;12.072;2022-09-13T10:02:50;3.80;;;3.40;;
9330;SDS011;4704;50.470;12.072;2022-09-13T10:05:19;3.83;;;3.10;;
9330;SDS011;4704;50.470;12.072;2022-09-13T10:44:32;3.92;;;3.50;;
9330;SDS011;4704;50.470;12.072;2022-09-13T10:47:03;4.75;;;3.33;;
9330;SDS011;4704;50.470;12.072;2022-09-13T10:49:34;3.83;;;3.53;;
9330;SDS011;4704;50.470;12.072;2022-09-13T10:54:45;3.63;;;3.33;;
9330;SDS011;4704;50.470;12.072;2022-09-13T10:57:23;3.90;;;3.50;;
9330;SDS011;4704;50.470;12.072;2022-09-13T10:59:55;3.80;;;3.22;;
9330;SDS011;4704;50.470;12.072;2022-09-13T11:02:33;3.40;;;3.10;;
9330;SDS011;4704;50.470;12.072;2022-09-13T11:05:08;4.18;;;3.40;;
9330;SDS011;4704;50.470;12.072;2022-09-13T11:07:43;3.70;;;3.30;;
9330;SDS011;4704;50.470;12.072;2022-09-13T11:10:15;3.45;;;3.15;;
9330;SDS011;4704;50.470;12.072;2022-09-13T11:12:46;3.38;;;3.08;;
9330;SDS011;4704;50.470;12.072;2022-09-13T11:15:20;3.60;;;3.30;;
9330;SDS011;4704;50.470;12.072;2022-09-13T11:18:08;3.95;;;3.53;;
9330;SDS011;4704;50.470;12.072;2022-09-13T11:20:42;3.67;;;3.38;;
9330;SDS011;4704;50.470;12.072;2022-09-13T11:23:22;4.35;;;3.88;;
9330;SDS011;4704;50.470;12.072;2022-09-13T11:25:56;4.80;;;3.30;;
9330;SDS011;4704;50.470;12.072;2022-09-13T11:28:36;3.90;;;3.60;;
9330;SDS011;4704;50.470;12.072;2022-09-13T11:31:17;4.57;;;3.35;;
9330;SDS011;4704;50.470;12.072;2022-09-13T11:33:50;3.47;;;3.20;;
9330;SDS011;4704;50.470;12.072;2022-09-13T11:36:26;4.35;;;3.20;;
9330;SDS011;4704;50.470;12.072;2022-09-13T11:38:59;3.50;;;3.20;;
9330;SDS011;4704;50.470;12.072;2022-09-13T11:41:33;4.57;;;3.72;;
9330;SDS011;4704;50.470;12.072;2022-09-13T11:44:11;3.75;;;3.30;;
9330;SDS011;4704;50.470;12.072;2022-09-13T11:46:47;3.78;;;3.47;;
9330;SDS011;4704;50.470;12.072;2022-09-13T11:52:07;3.50;;;3.20;;
9330;SDS011;4704;50.470;12.072;2022-09-13T11:54:43;3.58;;;3.28;;
9330;SDS011;4704;50.470;12.072;2022-09-13T11:57:13;5.00;;;3.63;;
9330;SDS011;4704;50.470;12.072;2022-09-13T11:59:43;3.33;;;3.03;;
9330;SDS011;4704;50.470;12.072;2022-09-13T12:02:16;3.28;;;2.97;;
9330;SDS011;4704;50.470;12.072;2022-09-13T12:04:47;4.25;;;3.20;;
9330;SDS011;4704;50.470;12.072;2022-09-13T12:07:18;3.45;;;3.03;;
9330;SDS011;4704;50.470;12.072;2022-09-13T12:09:51;3.50;;;3.20;;
9330;SDS011;4704;50.470;12.072;2022-09-13T12:12:19;3.38;;;3.00;;
9330;SDS011;4704;50.470;12.072;2022-09-13T12:14:51;3.50;;;3.20;;
9330;SDS011;4704;50.470;12.072;2022-09-13T12:17:26;3.50;;;3.17;;
9330;SDS011;4704;50.470;12.072;2022-09-13T12:19:56;3.42;;;2.70;;
9330;SDS011;4704;50.470;12.072;2022-09-13T12:22:25;3.60;;;3.30;;
9330;SDS011;4704;50.470;12.072;2022-09-13T12:24:54;3.20;;;2.90;;
9330;SDS011;4704;50.470;12.072;2022-09-13T12:27:24;3.75;;;3.00;;
9330;SDS011;4704;50.470;12.072;2022-09-13T12:29:54;3.60;;;3.17;;
9330;SDS011;4704;50.470;12.072;2022-09-13T12:32:22;3.28;;;2.97;;
9330;SDS011;4704;50.470;12.072;2022-09-13T12:34:52;3.58;;;3.28;;
9330;SDS011;4704;50.470;12.072;2022-09-13T12:37:28;3.42;;;2.97;;
9330;SDS011;4704;50.470;12.072;2022-09-13T12:40:07;3.50;;;3.20;;
9330;SDS011;4704;50.470;12.072;2022-09-13T12:45:41;3.40;;;3.00;;
9330;SDS011;4704;50.470;12.072;2022-09-13T12:48:21;3.20;;;2.90;;
9330;SDS011;4704;50.470;12.072;2022-09-13T12:50:57;3.42;;;3.03;;
9330;SDS011;4704;50.470;12.072;2022-09-13T12:53:48;3.33;;;2.88;;
9330;SDS011;4704;50.470;12.072;2022-09-13T12:56:27;3.13;;;2.65;;
9330;SDS011;4704;50.470;12.072;2022-09-13T13:01:53;3.20;;;2.90;;
9330;SDS011;4704;50.470;12.072;2022-09-13T13:04:22;4.78;;;3.33;;
9330;SDS011;4704;50.470;12.072;2022-09-13T13:06:53;4.70;;;3.30;;
9330;SDS011;4704;50.470;12.072;2022-09-13T13:09:23;3.30;;;3.00;;
9330;SDS011;4704;50.470;12.072;2022-09-13T13:11:53;3.60;;;3.30;;
9330;SDS011;4704;50.470;12.072;2022-09-13T13:19:54;3.97;;;3.50;;
9330;SDS011;4704;50.470;12.072;2022-09-13T13:27:52;3.75;;;3.20;;
9330;SDS011;4704;50.470;12.072;2022-09-13T13:33:23;3.78;;;3.30;;
9330;SDS011;4704;50.470;12.072;2022-09-13T13:35:50;3.95;;;3.50;;
9330;SDS011;4704;50.470;12.072;2022-09-13T13:41:07;3.22;;;2.92;;
9330;SDS011;4704;50.470;12.072;2022-09-13T13:43:56;3.13;;;2.85;;
9330;SDS011;4704;50.470;12.072;2022-09-13T13:46:25;3.50;;;3.20;;
9330;SDS011;4704;50.470;12.072;2022-09-13T13:48:52;3.63;;;3.33;;
9330;SDS011;4704;50.470;12.072;2022-09-13T13:51:21;4.47;;;3.25;;
9330;SDS011;4704;50.470;12.072;2022-09-13T13:53:51;3.55;;;3.25;;
9330;SDS011;4704;50.470;12.072;2022-09-13T13:56:21;3.40;;;2.90;;
9330;SDS011;4704;50.470;12.072;2022-09-13T13:58:50;3.80;;;3.40;;
9330;SDS011;4704;50.470;12.072;2022-09-13T14:01:23;3.38;;;3.08;;
9330;SDS011;4704;50.470;12.072;2022-09-13T14:06:41;3.38;;;3.08;;
9330;SDS011;4704;50.470;12.072;2022-09-13T14:09:16;4.07;;;2.90;;
9330;SDS011;4704;50.470;12.072;2022-09-13T14:11:52;3.38;;;3.08;;
9330;SDS011;4704;50.470;12.072;2022-09-13T14:14:30;3.40;;;3.10;;
9330;SDS011;4704;50.470;12.072;2022-09-13T14:17:08;3.30;;;3.00;;
9330;SDS011;4704;50.470;12.072;2022-09-13T14:19:41;3.25;;;2.95;;
9330;SDS011;4704;50.470;12.072;2022-09-13T14:22:14;3.10;;;2.80;;
9330;SDS011;4704;50.470;12.072;2022-09-13T14:24:42;3.05;;;2.72;;
9330;SDS011;4704;50.470;12.072;2022-09-13T14:27:13;3.25;;;2.72;;
9330;SDS011;4704;50.470;12.072;2022-09-13T14:29:43;4.38;;;2.95;;
9330;SDS011;4704;50.470;12.072;2022-09-13T14:32:13;3.08;;;2.75;;
9330;SDS011;4704;50.470;12.072;2022-09-13T14:34:49;2.97;;;2.67;;
9330;SDS011;4704;50.470;12.072;2022-09-13T14:37:17;3.25;;;3.00;;
9330;SDS011;4704;50.470;12.072;2022-09-13T14:39:54;3.35;;;3.05;;
9330;SDS011;4704;50.470;12.072;2022-09-13T14:42:22;2.97;;;2.72;;
9330;SDS011;4704;50.470;12.072;2022-09-13T14:44:50;3.00;;;2.80;;
9330;SDS011;4704;50.470;12.072;2022-09-13T14:47:21;2.88;;;2.67;;
9330;SDS011;4704;50.470;12.072;2022-09-13T14:49:51;3.28;;;2.80;;
9330;SDS011;4704;50.470;12.072;2022-09-13T14:52:23;2.63;;;2.42;;
9330;SDS011;4704;50.470;12.072;2022-09-13T14:54:53;2.72;;;2.53;;
9330;SDS011;4704;50.470;12.072;2022-09-13T14:57:22;2.90;;;2.70;;
9330;SDS011;4704;50.470;12.072;2022-09-13T14:59:53;2.50;;;2.30;;
9330;SDS011;4704;50.470;12.072;2022-09-13T15:02:24;3.60;;;2.88;;
9330;SDS011;4704;50.470;12.072;2022-09-13T15:04:52;3.30;;;2.97;;
9330;SDS011;4704;50.470;12.072;2022-09-13T15:07:22;4.75;;;3.30;;
9330;SDS011;4704;50.470;12.072;2022-09-13T15:09:57;3.35;;;3.05;;
9330;SDS011;4704;50.470;12.072;2022-09-13T15:12:31;3.20;;;2.85;;
9330;SDS011;4704;50.470;12.072;2022-09-13T15:17:53;3.00;;;2.72;;
9330;SDS011;4704;50.470;12.072;2022-09-13T15:20:21;3.17;;;2.90;;
9330;SDS011;4704;50.470;12.072;2022-09-13T15:22:48;3.10;;;2.80;;
9330;SDS011;4704;50.470;12.072;2022-09-13T15:25:18;2.97;;;2.78;;
9330;SDS011;4704;50.470;12.072;2022-09-13T15:27:46;3.33;;;2.90;;
9330;SDS011;4704;50.470;12.072;2022-09-13T15:30:24;2.90;;;2.63;;
9330;SDS011;4704;50.470;12.072;2022-09-13T15:33:13;3.38;;;3.08;;
9330;SDS011;4704;50.470;12.072;2022-09-13T15:35:42;3.08;;;2.75;;
9330;SDS011;4704;50.470;12.072;2022-09-13T15:38:17;2.85;;;2.65;;
9330;SDS011;4704;50.470;12.072;2022-09-13T15:40:45;2.83;;;2.63;;
9330;SDS011;4704;50.470;12.072;2022-09-13T15:43:13;2.72;;;2.53;;
9330;SDS011;4704;50.470;12.072;2022-09-13T15:45:40;2.85;;;2.58;;
9330;SDS011;4704;50.470;12.072;2022-09-13T15:48:10;2.90;;;2.70;;
9330;SDS011;4704;50.470;12.072;2022-09-13T15:50:43;2.80;;;2.58;;
9330;SDS011;4704;50.470;12.072;2022-09-13T15:53:17;3.25;;;2.53;;
9330;SDS011;4704;50.470;12.072;2022-09-13T15:55:45;2.78;;;2.58;;
9330;SDS011;4704;50.470;12.072;2022-09-13T15:58:12;2.53;;;2.40;;
9330;SDS011;4704;50.470;12.072;2022-09-13T16:00:40;2.60;;;2.40;;
9330;SDS011;4704;50.470;12.072;2022-09-13T16:03:08;2.50;;;2.30;;
9330;SDS011;4704;50.470;12.072;2022-09-13T16:05:36;2.47;;;2.28;;
9330;SDS011;4704;50.470;12.072;2022-09-13T16:08:04;2.72;;;2.53;;
9330;SDS011;4704;50.470;12.072;2022-09-13T16:10:32;2.58;;;2.38;;
9330;SDS011;4704;50.470;12.072;2022-09-13T16:12:59;2.42;;;2.25;;
9330;SDS011;4704;50.470;12.072;2022-09-13T16:15:27;2.60;;;2.40;;
9330;SDS011;4704;50.470;12.072;2022-09-13T16:17:54;2.72;;;2.47;;
9330;SDS011;4704;50.470;12.072;2022-09-13T16:20:21;2.60;;;2.40;;
9330;SDS011;4704;50.470;12.072;2022-09-13T16:22:51;2.28;;;2.15;;
9330;SDS011;4704;50.470;12.072;2022-09-13T16:25:19;2.50;;;2.30;;
9330;SDS011;4704;50.470;12.072;2022-09-13T16:27:47;2.60;;;2.40;;
9330;SDS011;4704;50.470;12.072;2022-09-13T16:30:16;2.80;;;2.60;;
9330;SDS011;4704;50.470;12.072;2022-09-13T16:32:44;2.55;;;2.35;;
9330;SDS011;4704;50.470;12.072;2022-09-13T16:35:11;2.50;;;2.30;;
9330;SDS011;4704;50.470;12.072;2022-09-13T16:37:40;2.42;;;2.22;;
9330;SDS011;4704;50.470;12.072;2022-09-13T16:40:10;2.60;;;2.40;;
9330;SDS011;4704;50.470;12.072;2022-09-13T16:42:38;2.30;;;2.20;;
9330;SDS011;4704;50.470;12.072;2022-09-13T16:45:06;2.63;;;2.42;;
9330;SDS011;4704;50.470;12.072;2022-09-13T16:47:33;2.75;;;2.55;;